Time;durP1;ratioP1;P1;durP2;ratioP2;P2;SDS_P1;SDS_P2;PMS_P1;PMS_P2;Temp;Humidity;BMP_temperature;BMP_pressure;BME280_temperature;BME280_humidity;BME280_pressure;Samples;Min_cycle;Max_cycle;Signal;HPM_P1;HPM_P2
2022/11/01 00:00:39;;;;;;;99.97;41.40;;;;;;;;;;5034577;28;20128;-67
2022/11/01 00:03:04;;;;;;;89.20;40.65;;;;;;;;;;5035544;28;20060;-66
2022/11/01 00:05:30;;;;;;;107.22;41.95;;;;;;;;;;5036802;28;20018;-65
2022/11/01 00:07:55;;;;;;;110.65;41.55;;;;;;;;;;5036752;28;20031;-66
2022/11/01 00:10:20;;;;;;;100.30;41.00;;;;;;;;;;5037261;28;20096;-67
2022/11/01 00:12:45;;;;;;;96.77;40.33;;;;;;;;;;5026121;28;20053;-66
2022/11/01 00:15:11;;;;;;;92.30;39.92;;;;;;;;;;5037718;28;20250;-65
2022/11/01 00:17:36;;;;;;;101.50;43.17;;;;;;;;;;5034056;28;20021;-65
2022/11/01 00:20:01;;;;;;;103.15;42.75;;;;;;;;;;5028865;28;20100;-65
2022/11/01 00:22:26;;;;;;;97.70;42.80;;;;;;;;;;5023856;28;20032;-65
2022/11/01 00:24:51;;;;;;;93.10;41.57;;;;;;;;;;5017700;28;20063;-66
2022/11/01 00:27:17;;;;;;;111.40;46.30;;;;;;;;;;5017899;28;20247;-66
2022/11/01 00:29:43;;;;;;;122.88;43.17;;;;;;;;;;5016728;28;20014;-66
2022/11/01 00:32:08;;;;;;;125.28;46.30;;;;;;;;;;5027481;28;20036;-65
2022/11/01 00:34:33;;;;;;;102.90;44.30;;;;;;;;;;5031569;28;20104;-65
2022/11/01 00:36:58;;;;;;;106.80;43.83;;;;;;;;;;5022873;28;20021;-65
2022/11/01 00:39:24;;;;;;;100.95;43.10;;;;;;;;;;5037657;28;20060;-66
2022/11/01 00:41:49;;;;;;;102.82;42.78;;;;;;;;;;5027103;28;20118;-66
2022/11/01 00:44:14;;;;;;;116.05;44.70;;;;;;;;;;5025304;28;20028;-67
2022/11/01 00:46:39;;;;;;;120.70;46.80;;;;;;;;;;5029928;28;20028;-66
2022/11/01 00:49:04;;;;;;;126.18;47.65;;;;;;;;;;5022235;28;20006;-66
2022/11/01 00:51:29;;;;;;;125.30;46.10;;;;;;;;;;5022090;28;20014;-65
2022/11/01 00:53:55;;;;;;;112.05;43.22;;;;;;;;;;5026160;28;20251;-64
2022/11/01 00:56:20;;;;;;;130.35;48.00;;;;;;;;;;5035759;28;20033;-66
2022/11/01 00:58:45;;;;;;;104.22;42.70;;;;;;;;;;5026172;28;20021;-65
2022/11/01 01:01:10;;;;;;;107.05;44.10;;;;;;;;;;5029528;28;20112;-66
2022/11/01 01:03:36;;;;;;;117.25;45.53;;;;;;;;;;5023997;28;20018;-65
2022/11/01 01:06:01;;;;;;;121.90;47.88;;;;;;;;;;5025173;28;20415;-65
2022/11/01 01:08:26;;;;;;;127.28;48.90;;;;;;;;;;5022476;28;20014;-65
2022/11/01 01:10:51;;;;;;;111.18;46.63;;;;;;;;;;5014468;28;20018;-66
2022/11/01 01:13:17;;;;;;;130.45;50.47;;;;;;;;;;5020435;28;20013;-66
2022/11/01 01:15:43;;;;;;;129.43;47.53;;;;;;;;;;5020440;28;20026;-64
2022/11/01 01:18:08;;;;;;;141.95;50.10;;;;;;;;;;5026896;28;20018;-65
2022/11/01 01:20:33;;;;;;;128.30;50.17;;;;;;;;;;5034544;28;20039;-65
2022/11/01 01:22:58;;;;;;;139.95;52.75;;;;;;;;;;5017965;28;20026;-65
2022/11/01 01:25:24;;;;;;;128.35;50.47;;;;;;;;;;5021097;28;20141;-65
2022/11/01 01:27:49;;;;;;;158.43;54.88;;;;;;;;;;5021518;28;20399;-65
2022/11/01 01:30:14;;;;;;;141.90;52.63;;;;;;;;;;5018477;28;20010;-64
2022/11/01 01:32:40;;;;;;;134.90;52.85;;;;;;;;;;5024577;28;20033;-66
2022/11/01 01:35:05;;;;;;;137.65;52.45;;;;;;;;;;5034073;28;20426;-64
2022/11/01 01:37:31;;;;;;;131.55;53.28;;;;;;;;;;5031071;28;20021;-67
2022/11/01 01:39:56;;;;;;;150.88;53.97;;;;;;;;;;5028934;28;20024;-64
2022/11/01 01:42:29;;;;;;;140.65;51.60;;;;;;;;;;5024527;28;20033;-66
2022/11/01 01:44:57;;;;;;;135.40;50.83;;;;;;;;;;5028632;28;20025;-64
2022/11/01 01:47:23;;;;;;;138.27;50.22;;;;;;;;;;5032588;28;20048;-66
2022/11/01 01:50:09;;;;;;;158.88;52.42;;;;;;;;;;5025985;28;20041;-64
2022/11/01 01:52:41;;;;;;;139.18;51.72;;;;;;;;;;5019627;28;20022;-65
2022/11/01 01:55:07;;;;;;;133.43;52.50;;;;;;;;;;5023432;28;20476;-65
2022/11/01 01:57:34;;;;;;;133.38;51.30;;;;;;;;;;5019185;28;20037;-66
2022/11/01 01:59:59;;;;;;;143.43;52.70;;;;;;;;;;5029196;28;20033;-65
2022/11/01 02:02:24;;;;;;;139.07;51.58;;;;;;;;;;5035143;28;20018;-66
2022/11/01 02:04:52;;;;;;;146.65;51.67;;;;;;;;;;5034221;28;20041;-64
2022/11/01 02:07:18;;;;;;;149.80;53.58;;;;;;;;;;5033113;28;20016;-65
2022/11/01 02:09:43;;;;;;;147.73;54.60;;;;;;;;;;5032348;28;20096;-65
2022/11/01 02:12:10;;;;;;;140.95;55.42;;;;;;;;;;5022812;28;20064;-63
2022/11/01 02:14:36;;;;;;;152.48;52.55;;;;;;;;;;5036291;28;20048;-65
2022/11/01 02:17:01;;;;;;;140.88;51.75;;;;;;;;;;5024664;28;20022;-65
2022/11/01 02:19:29;;;;;;;149.27;51.50;;;;;;;;;;5037065;28;20112;-65
2022/11/01 02:22:03;;;;;;;131.85;50.30;;;;;;;;;;5037813;28;20246;-66
2022/11/01 02:24:48;;;;;;;136.60;51.53;;;;;;;;;;5036335;28;20380;-66
2022/11/01 02:27:22;;;;;;;136.27;49.67;;;;;;;;;;5029946;28;20014;-64
2022/11/01 02:29:50;;;;;;;126.47;48.45;;;;;;;;;;5022538;28;20029;-65
2022/11/01 02:32:18;;;;;;;147.52;49.53;;;;;;;;;;5027687;28;20013;-66
2022/11/01 02:35:04;;;;;;;126.85;46.22;;;;;;;;;;5022800;28;20467;-67
2022/11/01 02:37:48;;;;;;;119.60;46.65;;;;;;;;;;5030970;28;20026;-65
2022/11/01 02:40:15;;;;;;;114.60;44.15;;;;;;;;;;5025686;28;20100;-66
2022/11/01 02:42:43;;;;;;;116.28;43.22;;;;;;;;;;5031741;28;20103;-66
2022/11/01 02:45:26;;;;;;;100.30;41.75;;;;;;;;;;5031563;28;20467;-65
2022/11/01 02:47:52;;;;;;;95.60;37.90;;;;;;;;;;5029598;28;20021;-65
2022/11/01 02:50:18;;;;;;;90.20;37.08;;;;;;;;;;5033471;28;20025;-66
2022/11/01 02:52:44;;;;;;;106.68;40.55;;;;;;;;;;5033674;28;20018;-65
2022/11/01 02:55:28;;;;;;;86.95;37.50;;;;;;;;;;5035766;28;20017;-66
2022/11/01 02:57:54;;;;;;;86.65;37.55;;;;;;;;;;5036630;28;20418;-65
2022/11/01 03:00:21;;;;;;;102.97;37.63;;;;;;;;;;5027782;28;20083;-66
2022/11/01 03:02:49;;;;;;;96.05;38.28;;;;;;;;;;5037253;28;20029;-65
2022/11/01 03:05:14;;;;;;;91.57;38.92;;;;;;;;;;5027888;28;20084;-64
2022/11/01 03:07:41;;;;;;;90.63;36.77;;;;;;;;;;5031557;28;20037;-65
2022/11/01 03:10:06;;;;;;;89.90;36.75;;;;;;;;;;5026010;28;20254;-65
2022/11/01 03:12:34;;;;;;;87.28;36.95;;;;;;;;;;5033273;28;20026;-65
2022/11/01 03:14:59;;;;;;;94.93;39.58;;;;;;;;;;5035972;28;20025;-64
2022/11/01 03:17:47;;;;;;;106.67;38.37;;;;;;;;;;5023237;28;20080;-65
2022/11/01 03:20:12;;;;;;;82.03;34.50;;;;;;;;;;5035904;28;20243;-66
2022/11/01 03:22:42;;;;;;;78.47;36.22;;;;;;;;;;5027940;28;20612;-66
2022/11/01 03:28:00;;;;;;;92.82;36.80;;;;;;;;;;5035928;28;20031;-66
2022/11/01 03:30:26;;;;;;;93.97;37.63;;;;;;;;;;5036119;28;20626;-64
2022/11/01 03:32:54;;;;;;;100.63;37.35;;;;;;;;;;5027224;28;20017;-66
2022/11/01 03:35:27;;;;;;;88.32;36.35;;;;;;;;;;5029948;28;20021;-67
2022/11/01 03:37:55;;;;;;;83.00;34.42;;;;;;;;;;5024468;28;20028;-66
2022/11/01 03:40:22;;;;;;;87.35;33.83;;;;;;;;;;5023116;28;20018;-65
2022/11/01 03:42:48;;;;;;;92.30;33.75;;;;;;;;;;5035352;28;20035;-64
2022/11/01 03:45:15;;;;;;;90.95;31.90;;;;;;;;;;5033533;28;20018;-66
2022/11/01 03:47:40;;;;;;;79.95;33.55;;;;;;;;;;5023225;28;20033;-67
2022/11/01 03:50:12;;;;;;;74.82;30.88;;;;;;;;;;5021052;28;20104;-63
2022/11/01 03:52:37;;;;;;;67.75;31.73;;;;;;;;;;5025343;28;20010;-66
2022/11/01 03:55:16;;;;;;;70.25;31.45;;;;;;;;;;5031726;28;20571;-67
2022/11/01 03:57:42;;;;;;;74.45;30.73;;;;;;;;;;5019617;28;20021;-66
2022/11/01 04:00:07;;;;;;;77.07;30.92;;;;;;;;;;5024273;28;20053;-64
2022/11/01 04:02:33;;;;;;;87.28;31.88;;;;;;;;;;5035435;28;20017;-66
2022/11/01 04:04:58;;;;;;;72.15;29.33;;;;;;;;;;5035726;28;20044;-66
2022/11/01 04:07:23;;;;;;;68.80;27.83;;;;;;;;;;5027377;28;20045;-67
2022/11/01 04:09:48;;;;;;;78.25;29.40;;;;;;;;;;5035501;28;20052;-66
2022/11/01 04:12:14;;;;;;;70.82;29.38;;;;;;;;;;5034392;28;20371;-65
2022/11/01 04:22:51;;;;;;;64.45;28.50;;;;;;;;;;5033593;28;20044;-65
2022/11/01 04:25:16;;;;;;;69.57;30.27;;;;;;;;;;5023665;28;20285;-66
2022/11/01 04:27:41;;;;;;;63.65;28.13;;;;;;;;;;5034707;28;20020;-64
2022/11/01 04:30:07;;;;;;;66.88;27.65;;;;;;;;;;5024565;28;20018;-66
2022/11/01 04:32:32;;;;;;;69.32;29.65;;;;;;;;;;5023202;28;20044;-65
2022/11/01 04:34:57;;;;;;;77.47;27.75;;;;;;;;;;5024879;28;20316;-66
2022/11/01 04:37:22;;;;;;;69.00;27.65;;;;;;;;;;5033791;28;20598;-67
2022/11/01 04:39:47;;;;;;;62.33;28.58;;;;;;;;;;5038268;28;20021;-66
2022/11/01 04:42:13;;;;;;;69.65;28.35;;;;;;;;;;5038503;28;20097;-65
2022/11/01 04:44:38;;;;;;;76.20;27.90;;;;;;;;;;5036804;28;20014;-65
2022/11/01 04:47:03;;;;;;;65.18;26.88;;;;;;;;;;5034832;28;20047;-63
2022/11/01 04:49:28;;;;;;;66.20;28.65;;;;;;;;;;5035801;28;20090;-65
2022/11/01 04:51:53;;;;;;;62.75;25.85;;;;;;;;;;5030867;28;20006;-64
2022/11/01 04:54:19;;;;;;;66.57;27.17;;;;;;;;;;5016253;28;20018;-66
2022/11/01 04:56:44;;;;;;;73.32;29.05;;;;;;;;;;5030562;28;20029;-65
2022/11/01 04:59:09;;;;;;;67.35;26.63;;;;;;;;;;5018800;28;20041;-64
2022/11/01 05:01:34;;;;;;;73.55;26.17;;;;;;;;;;5030044;28;20033;-64
2022/11/01 05:03:59;;;;;;;69.38;25.77;;;;;;;;;;5034945;28;20109;-64
2022/11/01 05:06:25;;;;;;;58.72;26.00;;;;;;;;;;5020524;28;20028;-65
2022/11/01 05:08:50;;;;;;;66.88;24.13;;;;;;;;;;5036196;28;20083;-66
2022/11/01 05:11:15;;;;;;;66.70;27.33;;;;;;;;;;5023403;28;20542;-65
2022/11/01 05:13:40;;;;;;;62.35;24.52;;;;;;;;;;5037105;28;20013;-66
2022/11/01 05:16:06;;;;;;;68.70;26.77;;;;;;;;;;5025804;28;20025;-66
2022/11/01 05:18:31;;;;;;;68.95;22.98;;;;;;;;;;5032419;28;20017;-65
2022/11/01 05:20:56;;;;;;;56.10;24.35;;;;;;;;;;5033553;28;20720;-65
2022/11/01 05:23:21;;;;;;;62.25;24.45;;;;;;;;;;5034540;28;20010;-66
2022/11/01 05:25:46;;;;;;;60.40;23.58;;;;;;;;;;5022447;28;20018;-66
2022/11/01 05:28:13;;;;;;;52.50;21.33;;;;;;;;;;5026214;28;20045;-67
2022/11/01 05:30:38;;;;;;;60.03;23.00;;;;;;;;;;5020591;28;20473;-66
2022/11/01 05:33:05;;;;;;;58.42;24.40;;;;;;;;;;5025043;28;20098;-65
2022/11/01 05:35:30;;;;;;;59.50;23.08;;;;;;;;;;5031099;28;20081;-64
2022/11/01 05:37:56;;;;;;;60.83;23.10;;;;;;;;;;5023716;28;20076;-65
2022/11/01 05:40:22;;;;;;;54.90;21.48;;;;;;;;;;5028836;28;20013;-65
2022/11/01 05:42:47;;;;;;;63.90;21.52;;;;;;;;;;5036126;28;20025;-65
2022/11/01 05:45:13;;;;;;;63.80;21.60;;;;;;;;;;5030237;28;20029;-66
2022/11/01 05:47:41;;;;;;;50.80;21.90;;;;;;;;;;5036214;28;20022;-64
2022/11/01 05:50:11;;;;;;;72.47;21.45;;;;;;;;;;5023830;28;20028;-66
2022/11/01 05:52:36;;;;;;;59.67;21.05;;;;;;;;;;5029391;28;20037;-66
2022/11/01 05:55:02;;;;;;;63.20;21.27;;;;;;;;;;5023794;28;20021;-67
2022/11/01 05:57:27;;;;;;;58.63;21.88;;;;;;;;;;5035997;28;20013;-65
2022/11/01 05:59:52;;;;;;;55.10;20.05;;;;;;;;;;5036117;28;20017;-66
2022/11/01 06:02:17;;;;;;;62.90;20.27;;;;;;;;;;5036907;28;20033;-66
2022/11/01 06:04:42;;;;;;;58.13;19.27;;;;;;;;;;5027768;28;20275;-64
2022/11/01 06:07:07;;;;;;;63.97;19.30;;;;;;;;;;5026469;28;20018;-66
2022/11/01 06:09:33;;;;;;;56.80;17.90;;;;;;;;;;5036334;28;20298;-66
2022/11/01 06:11:58;;;;;;;53.90;19.77;;;;;;;;;;5035571;28;20251;-65
2022/11/01 06:14:23;;;;;;;56.40;20.35;;;;;;;;;;5029183;28;20048;-66
2022/11/01 06:16:48;;;;;;;67.20;21.13;;;;;;;;;;5028846;28;20064;-65
2022/11/01 06:19:14;;;;;;;50.92;19.00;;;;;;;;;;5036752;28;20113;-66
2022/11/01 06:21:39;;;;;;;53.40;19.50;;;;;;;;;;5033449;28;20339;-64
2022/11/01 06:24:04;;;;;;;49.17;19.47;;;;;;;;;;5026175;28;20279;-66
2022/11/01 06:26:29;;;;;;;62.63;21.08;;;;;;;;;;5033050;28;20250;-66
2022/11/01 06:28:54;;;;;;;46.65;18.67;;;;;;;;;;5027138;28;20006;-67
2022/11/01 06:31:20;;;;;;;59.72;21.33;;;;;;;;;;5020720;28;20037;-65
2022/11/01 06:33:48;;;;;;;39.88;17.05;;;;;;;;;;5036721;28;20021;-65
2022/11/01 06:36:13;;;;;;;59.22;18.77;;;;;;;;;;5036098;28;20013;-66
2022/11/01 06:38:39;;;;;;;57.92;18.73;;;;;;;;;;5034230;28;20063;-65
2022/11/01 06:41:04;;;;;;;60.20;17.85;;;;;;;;;;5034940;28;20634;-68
2022/11/01 06:43:29;;;;;;;49.55;17.60;;;;;;;;;;5037307;28;20070;-67
2022/11/01 06:45:57;;;;;;;64.35;18.00;;;;;;;;;;5035356;28;20477;-66
2022/11/01 06:48:22;;;;;;;48.13;15.98;;;;;;;;;;5021019;28;20033;-67
2022/11/01 06:50:47;;;;;;;41.53;16.00;;;;;;;;;;5022209;28;20092;-66
2022/11/01 06:53:13;;;;;;;49.92;17.85;;;;;;;;;;5017863;28;20017;-67
2022/11/01 06:55:38;;;;;;;53.10;15.77;;;;;;;;;;5034875;28;20039;-65
2022/11/01 06:58:03;;;;;;;49.90;16.92;;;;;;;;;;5037182;28;20366;-67
2022/11/01 07:00:29;;;;;;;42.90;14.90;;;;;;;;;;5029562;28;20045;-65
2022/11/01 07:03:01;;;;;;;46.22;15.77;;;;;;;;;;5032323;28;20129;-66
2022/11/01 07:05:27;;;;;;;56.65;17.17;;;;;;;;;;5028415;28;20040;-66
2022/11/01 07:07:53;;;;;;;55.28;16.73;;;;;;;;;;5035822;28;20036;-67
2022/11/01 07:10:18;;;;;;;51.58;15.70;;;;;;;;;;5036096;28;20092;-65
2022/11/01 07:12:44;;;;;;;50.22;16.25;;;;;;;;;;5033822;28;20014;-67
2022/11/01 07:15:09;;;;;;;39.93;15.57;;;;;;;;;;5034976;28;20394;-66
2022/11/01 07:17:35;;;;;;;49.30;16.70;;;;;;;;;;5032247;28;20325;-66
2022/11/01 07:20:00;;;;;;;38.95;14.60;;;;;;;;;;5028708;28;20037;-65
2022/11/01 07:22:25;;;;;;;43.63;15.70;;;;;;;;;;5037419;28;20025;-65
2022/11/01 07:24:50;;;;;;;46.73;16.63;;;;;;;;;;5036753;28;20056;-65
2022/11/01 07:27:16;;;;;;;46.43;13.33;;;;;;;;;;5035174;28;20251;-66
2022/11/01 07:29:41;;;;;;;45.15;15.18;;;;;;;;;;5037317;28;20262;-67
2022/11/01 07:32:06;;;;;;;58.03;16.52;;;;;;;;;;5030866;28;20077;-67
2022/11/01 07:34:31;;;;;;;41.13;16.35;;;;;;;;;;5029372;28;20029;-67
2022/11/01 07:36:57;;;;;;;60.73;18.10;;;;;;;;;;5028553;28;20565;-65
2022/11/01 07:39:22;;;;;;;57.28;17.30;;;;;;;;;;5028948;28;20258;-66
2022/11/01 07:41:50;;;;;;;48.90;16.48;;;;;;;;;;5027804;28;20030;-65
2022/11/01 07:44:15;;;;;;;47.00;16.13;;;;;;;;;;5028643;28;20022;-64
2022/11/01 07:46:40;;;;;;;55.13;16.43;;;;;;;;;;5028533;28;20075;-68
2022/11/01 07:49:05;;;;;;;55.40;17.98;;;;;;;;;;5029978;28;20283;-66
2022/11/01 07:51:30;;;;;;;54.22;18.42;;;;;;;;;;5026690;28;20047;-66
2022/11/01 07:53:56;;;;;;;54.40;16.43;;;;;;;;;;5029769;28;20487;-65
2022/11/01 07:56:21;;;;;;;55.00;15.77;;;;;;;;;;5029573;28;20251;-66
2022/11/01 07:58:46;;;;;;;51.47;15.30;;;;;;;;;;5029197;28;20694;-66
2022/11/01 08:01:11;;;;;;;50.40;14.05;;;;;;;;;;5027603;28;20128;-65
2022/11/01 08:03:37;;;;;;;40.90;14.40;;;;;;;;;;5029357;28;20017;-67
2022/11/01 08:06:05;;;;;;;42.83;16.45;;;;;;;;;;5029188;28;20033;-66
2022/11/01 08:08:30;;;;;;;42.90;15.85;;;;;;;;;;5027288;28;20021;-67
2022/11/01 08:10:58;;;;;;;56.92;15.90;;;;;;;;;;5029368;28;20879;-65
2022/11/01 08:13:23;;;;;;;45.17;14.20;;;;;;;;;;5029173;28;20399;-65
2022/11/01 08:15:49;;;;;;;45.10;15.02;;;;;;;;;;5027810;28;20510;-66
2022/11/01 08:18:15;;;;;;;45.67;15.18;;;;;;;;;;5027569;28;20034;-65
2022/11/01 08:20:41;;;;;;;39.20;13.88;;;;;;;;;;5028301;28;20036;-66
2022/11/01 08:23:06;;;;;;;58.60;14.52;;;;;;;;;;5028244;28;20017;-65
2022/11/01 08:25:31;;;;;;;46.35;14.10;;;;;;;;;;5027917;28;20850;-66
2022/11/01 08:28:04;;;;;;;39.65;12.98;;;;;;;;;;5026086;28;20116;-66
2022/11/01 08:30:29;;;;;;;32.30;13.68;;;;;;;;;;5029437;28;20033;-65
2022/11/01 08:33:00;;;;;;;44.75;14.65;;;;;;;;;;5028618;28;20200;-66
2022/11/01 08:35:26;;;;;;;55.08;17.75;;;;;;;;;;5027927;28;20034;-66
2022/11/01 08:37:52;;;;;;;51.50;15.70;;;;;;;;;;5024523;28;20159;-65
2022/11/01 08:40:17;;;;;;;60.38;15.20;;;;;;;;;;5029201;28;20055;-65
2022/11/01 08:42:43;;;;;;;44.38;15.70;;;;;;;;;;5028724;28;20032;-66
2022/11/01 08:45:09;;;;;;;57.88;16.13;;;;;;;;;;5028808;28;20040;-64
2022/11/01 08:47:34;;;;;;;60.85;15.65;;;;;;;;;;5027897;28;20029;-66
2022/11/01 08:49:59;;;;;;;44.38;15.00;;;;;;;;;;5027759;28;20018;-65
2022/11/01 08:52:24;;;;;;;42.25;14.00;;;;;;;;;;5024467;28;20021;-66
2022/11/01 08:54:50;;;;;;;43.55;13.45;;;;;;;;;;5033467;28;20021;-66
2022/11/01 08:57:15;;;;;;;47.35;13.98;;;;;;;;;;5035098;28;20029;-67
2022/11/01 08:59:40;;;;;;;55.67;15.18;;;;;;;;;;5031649;28;20131;-66
2022/11/01 09:02:07;;;;;;;41.20;14.10;;;;;;;;;;5033112;28;20025;-66
2022/11/01 09:04:33;;;;;;;30.42;12.98;;;;;;;;;;5034094;28;20026;-67
2022/11/01 09:06:58;;;;;;;45.65;13.75;;;;;;;;;;5032809;28;20081;-67
2022/11/01 09:09:23;;;;;;;39.15;14.48;;;;;;;;;;5031591;28;20403;-66
2022/11/01 09:11:48;;;;;;;41.83;14.30;;;;;;;;;;5024174;28;20391;-67
2022/11/01 09:14:14;;;;;;;42.72;13.40;;;;;;;;;;5032318;28;20476;-65
2022/11/01 09:16:39;;;;;;;39.22;13.10;;;;;;;;;;5024164;28;20060;-67
2022/11/01 09:19:04;;;;;;;62.25;15.00;;;;;;;;;;5031694;28;20079;-65
2022/11/01 09:21:29;;;;;;;46.17;14.30;;;;;;;;;;5034674;28;20025;-66
2022/11/01 09:23:55;;;;;;;41.90;13.48;;;;;;;;;;5035642;28;20025;-65
2022/11/01 09:26:20;;;;;;;39.88;13.23;;;;;;;;;;5034091;28;20029;-67
2022/11/01 09:28:53;;;;;;;46.67;13.40;;;;;;;;;;5035670;28;20010;-65
2022/11/01 09:31:19;;;;;;;61.78;14.63;;;;;;;;;;5034625;28;20028;-66
2022/11/01 09:33:44;;;;;;;36.00;12.57;;;;;;;;;;5034273;28;20017;-66
2022/11/01 09:36:09;;;;;;;42.00;13.13;;;;;;;;;;5034611;28;20036;-66
2022/11/01 09:38:34;;;;;;;42.47;13.88;;;;;;;;;;5034490;28;20032;-65
2022/11/01 09:41:03;;;;;;;34.38;12.80;;;;;;;;;;5027793;28;20124;-67
2022/11/01 09:43:30;;;;;;;46.63;13.90;;;;;;;;;;5033433;28;20029;-66
2022/11/01 09:45:58;;;;;;;47.70;14.50;;;;;;;;;;5034323;28;20395;-65
2022/11/01 09:48:24;;;;;;;57.10;13.77;;;;;;;;;;5034570;28;20049;-66
2022/11/01 09:50:49;;;;;;;51.80;13.98;;;;;;;;;;5035393;28;20021;-67
2022/11/01 09:53:19;;;;;;;43.75;13.98;;;;;;;;;;5035295;28;20333;-67
2022/11/01 09:55:51;;;;;;;53.75;13.38;;;;;;;;;;5035919;28;20013;-66
2022/11/01 09:58:17;;;;;;;54.15;14.10;;;;;;;;;;5034461;28;20025;-66
2022/11/01 10:00:45;;;;;;;41.03;13.90;;;;;;;;;;5035323;28;20438;-67
2022/11/01 10:03:10;;;;;;;45.03;14.65;;;;;;;;;;5035602;28;20254;-67
2022/11/01 10:05:44;;;;;;;39.50;14.02;;;;;;;;;;5035048;28;20040;-66
2022/11/01 10:08:19;;;;;;;36.30;13.63;;;;;;;;;;5033243;28;20101;-67
2022/11/01 10:10:47;;;;;;;35.40;14.10;;;;;;;;;;5022283;28;20472;-66
2022/11/01 10:13:29;;;;;;;47.77;13.20;;;;;;;;;;5034091;28;20029;-66
2022/11/01 10:16:02;;;;;;;32.78;12.43;;;;;;;;;;5034059;28;20251;-67
2022/11/01 10:18:29;;;;;;;40.67;10.95;;;;;;;;;;5034165;28;20021;-67
2022/11/01 10:20:55;;;;;;;40.90;12.98;;;;;;;;;;5022016;28;20028;-66
2022/11/01 10:23:30;;;;;;;45.08;12.93;;;;;;;;;;5032249;28;20029;-65
2022/11/01 10:25:55;;;;;;;33.15;10.75;;;;;;;;;;5034916;28;20556;-67
2022/11/01 10:28:36;;;;;;;38.45;12.23;;;;;;;;;;5034633;28;20029;-65
2022/11/01 10:31:05;;;;;;;28.27;10.77;;;;;;;;;;5024345;28;20017;-66
2022/11/01 10:33:32;;;;;;;40.92;10.85;;;;;;;;;;5026614;28;20479;-67
2022/11/01 10:36:01;;;;;;;28.10;9.52;;;;;;;;;;5036385;28;20037;-67
2022/11/01 10:38:31;;;;;;;37.40;10.60;;;;;;;;;;5036047;28;20095;-64
2022/11/01 10:41:11;;;;;;;30.23;9.32;;;;;;;;;;5037640;28;20052;-64
2022/11/01 10:43:37;;;;;;;26.85;9.15;;;;;;;;;;5028636;28;20024;-65
2022/11/01 10:46:06;;;;;;;23.73;9.45;;;;;;;;;;5036584;28;20018;-67
2022/11/01 10:48:33;;;;;;;27.98;8.95;;;;;;;;;;5036018;28;20021;-65
2022/11/01 10:51:02;;;;;;;31.80;9.82;;;;;;;;;;5038316;28;20105;-66
2022/11/01 10:53:29;;;;;;;34.92;10.63;;;;;;;;;;5036954;28;20021;-65
2022/11/01 10:55:56;;;;;;;27.23;9.95;;;;;;;;;;5036192;28;20021;-65
2022/11/01 10:58:41;;;;;;;32.90;10.00;;;;;;;;;;5036806;28;20030;-66
2022/11/01 11:01:08;;;;;;;23.13;8.90;;;;;;;;;;5035493;28;20052;-67
2022/11/01 11:03:34;;;;;;;24.38;8.75;;;;;;;;;;5033162;28;20021;-66
2022/11/01 11:06:03;;;;;;;19.50;7.40;;;;;;;;;;5037532;28;20029;-67
2022/11/01 11:08:29;;;;;;;22.85;7.75;;;;;;;;;;5036004;28;20036;-67
2022/11/01 11:10:56;;;;;;;15.35;6.55;;;;;;;;;;5036845;28;20017;-66
2022/11/01 11:13:22;;;;;;;23.10;7.53;;;;;;;;;;5036581;28;20018;-68
2022/11/01 11:15:48;;;;;;;20.80;6.82;;;;;;;;;;5037753;28;20026;-65
2022/11/01 11:18:24;;;;;;;20.00;7.20;;;;;;;;;;5037618;28;20034;-66
2022/11/01 11:20:54;;;;;;;20.33;6.78;;;;;;;;;;5036573;28;20028;-69
2022/11/01 11:23:23;;;;;;;14.35;5.25;;;;;;;;;;5034729;28;20777;-66
2022/11/01 11:25:49;;;;;;;;;;;;;;;;;;5037213;28;20029;-66
2022/11/01 11:28:20;;;;;;;13.68;5.45;;;;;;;;;;5036455;28;20319;-64
2022/11/01 11:30:46;;;;;;;22.00;6.85;;;;;;;;;;5036259;28;20471;-66
2022/11/01 11:33:15;;;;;;;12.65;4.78;;;;;;;;;;5037955;28;20044;-67
2022/11/01 11:35:44;;;;;;;21.88;5.32;;;;;;;;;;5022674;28;20067;-67
2022/11/01 11:38:12;;;;;;;17.80;4.57;;;;;;;;;;5036004;28;20473;-69
2022/11/01 11:40:37;;;;;;;9.47;4.10;;;;;;;;;;5038133;28;20052;-67
2022/11/01 11:43:17;;;;;;;23.80;4.13;;;;;;;;;;5036737;28;20017;-69
2022/11/01 11:45:43;;;;;;;15.15;4.30;;;;;;;;;;5036316;28;20279;-68
2022/11/01 11:48:19;;;;;;;15.20;4.80;;;;;;;;;;5034932;28;20052;-66
2022/11/01 11:50:44;;;;;;;15.80;4.93;;;;;;;;;;5025121;28;20282;-68
2022/11/01 11:53:16;;;;;;;9.75;4.07;;;;;;;;;;5035552;28;20041;-66
2022/11/01 11:55:44;;;;;;;15.27;4.60;;;;;;;;;;5036665;28;20017;-66
2022/11/01 11:58:27;;;;;;;13.88;4.63;;;;;;;;;;5021624;28;20021;-69
2022/11/01 12:01:04;;;;;;;12.80;4.35;;;;;;;;;;5033696;28;20494;-65
2022/11/01 12:03:33;;;;;;;11.13;3.90;;;;;;;;;;5026600;28;20081;-67
2022/11/01 12:06:00;;;;;;;13.40;3.60;;;;;;;;;;5029495;28;20022;-69
2022/11/01 12:08:36;;;;;;;14.10;3.45;;;;;;;;;;5027860;28;20060;-67
2022/11/01 12:11:02;;;;;;;13.65;3.40;;;;;;;;;;5029668;28;20025;-67
2022/11/01 12:13:30;;;;;;;13.18;3.33;;;;;;;;;;5026033;28;20026;-65
2022/11/01 12:16:16;;;;;;;15.50;4.18;;;;;;;;;;5030113;28;20105;-66
2022/11/01 12:18:51;;;;;;;16.83;3.38;;;;;;;;;;5026519;28;20120;-68
2022/11/01 12:21:18;;;;;;;18.23;3.83;;;;;;;;;;5021850;28;20494;-67
2022/11/01 12:23:43;;;;;;;10.20;3.58;;;;;;;;;;5031265;28;20060;-67
2022/11/01 12:26:11;;;;;;;11.05;3.55;;;;;;;;;;5022754;28;20017;-66
2022/11/01 12:28:39;;;;;;;7.43;2.87;;;;;;;;;;5032350;28;20021;-67
2022/11/01 12:31:12;;;;;;;18.10;3.08;;;;;;;;;;5049672;28;20284;-69
2022/11/01 12:33:58;;;;;;;10.57;2.90;;;;;;;;;;5034947;28;20025;-66
2022/11/01 12:36:32;;;;;;;9.23;2.80;;;;;;;;;;5021548;28;20048;-67
2022/11/01 12:39:11;;;;;;;12.23;3.00;;;;;;;;;;5033583;28;20023;-67
2022/11/01 12:41:41;;;;;;;10.57;3.40;;;;;;;;;;5033593;28;20112;-66
2022/11/01 12:44:06;;;;;;;7.80;2.72;;;;;;;;;;5034000;28;20063;-65
2022/11/01 12:46:38;;;;;;;10.43;3.53;;;;;;;;;;5033336;28;20074;-66
2022/11/01 12:49:15;;;;;;;15.18;3.72;;;;;;;;;;5036342;28;20313;-67
2022/11/01 12:51:47;;;;;;;14.45;3.13;;;;;;;;;;5035424;28;20642;-66
2022/11/01 12:54:32;;;;;;;11.25;3.13;;;;;;;;;;5035769;28;20017;-68
2022/11/01 12:56:57;;;;;;;9.27;3.08;;;;;;;;;;5022370;28;20020;-69
2022/11/01 12:59:25;;;;;;;11.57;3.25;;;;;;;;;;5033400;28;20022;-67
2022/11/01 13:01:55;;;;;;;11.27;3.40;;;;;;;;;;5024321;28;20030;-66
2022/11/01 13:04:20;;;;;;;11.52;3.45;;;;;;;;;;5033405;28;20055;-65
2022/11/01 13:06:45;;;;;;;16.03;3.50;;;;;;;;;;5022085;28;20039;-66
2022/11/01 13:09:29;;;;;;;10.90;3.83;;;;;;;;;;5033711;28;20556;-66
2022/11/01 13:11:57;;;;;;;9.88;4.25;;;;;;;;;;5025360;28;20018;-65
2022/11/01 13:14:32;;;;;;;11.68;4.60;;;;;;;;;;5032604;28;20049;-66
2022/11/01 13:17:08;;;;;;;14.43;3.60;;;;;;;;;;5033652;28;20026;-66
2022/11/01 13:19:37;;;;;;;6.93;2.90;;;;;;;;;;5022865;28;20498;-66
2022/11/01 13:22:07;;;;;;;9.02;3.47;;;;;;;;;;5033413;28;20033;-66
2022/11/01 13:24:41;;;;;;;12.10;3.35;;;;;;;;;;5022096;28;20021;-66
2022/11/01 13:27:09;;;;;;;17.27;3.75;;;;;;;;;;5031783;28;20028;-67
2022/11/01 13:29:35;;;;;;;11.30;4.70;;;;;;;;;;5024723;28;20066;-68
2022/11/01 13:32:08;;;;;;;12.73;3.55;;;;;;;;;;5027914;28;20279;-65
2022/11/01 13:34:43;;;;;;;13.85;3.72;;;;;;;;;;5034928;28;20025;-66
2022/11/01 13:37:27;;;;;;;13.55;3.60;;;;;;;;;;5034084;28;20120;-67
2022/11/01 13:40:11;;;;;;;12.27;3.72;;;;;;;;;;5036862;28;20025;-66
2022/11/01 13:42:41;;;;;;;17.70;4.22;;;;;;;;;;5027061;28;20117;-73
2022/11/01 13:45:06;;;;;;;10.27;3.22;;;;;;;;;;5032160;28;20036;-64
2022/11/01 13:47:50;;;;;;;14.50;3.63;;;;;;;;;;5025706;28;20022;-65
2022/11/01 13:50:29;;;;;;;21.88;3.40;;;;;;;;;;5024216;28;20721;-67
2022/11/01 13:52:59;;;;;;;12.80;3.33;;;;;;;;;;5033580;28;20022;-65
2022/11/01 13:55:30;;;;;;;12.38;3.88;;;;;;;;;;5034836;28;20131;-67
2022/11/01 13:57:56;;;;;;;13.95;3.78;;;;;;;;;;5033054;28;20022;-67
2022/11/01 14:00:50;;;;;;;11.73;3.65;;;;;;;;;;5034136;28;20021;-65
2022/11/01 14:03:22;;;;;;;9.98;3.72;;;;;;;;;;5021453;28;20025;-67
2022/11/01 14:06:06;;;;;;;11.18;4.05;;;;;;;;;;5031320;28;20487;-66
2022/11/01 14:08:36;;;;;;;11.02;3.97;;;;;;;;;;5019921;28;20383;-66
2022/11/01 14:11:01;;;;;;;11.20;3.65;;;;;;;;;;5033194;28;20017;-65
2022/11/01 14:13:32;;;;;;;23.88;4.45;;;;;;;;;;5027159;28;20080;-66
2022/11/01 14:16:00;;;;;;;12.23;3.65;;;;;;;;;;5032446;28;20052;-66
2022/11/01 14:18:25;;;;;;;11.20;3.53;;;;;;;;;;5036028;28;20384;-67
2022/11/01 14:20:54;;;;;;;11.18;3.78;;;;;;;;;;5020956;28;20036;-65
2022/11/01 14:23:30;;;;;;;17.42;3.58;;;;;;;;;;5035598;28;20116;-67
2022/11/01 14:26:14;;;;;;;12.45;3.53;;;;;;;;;;5037498;28;20067;-67
2022/11/01 14:28:43;;;;;;;13.43;3.75;;;;;;;;;;5034213;28;20021;-66
2022/11/01 14:31:08;;;;;;;8.73;3.55;;;;;;;;;;5032965;28;20438;-65
2022/11/01 14:33:34;;;;;;;22.85;4.32;;;;;;;;;;5034684;28;20025;-64